»·PEaware :: EJA220 KSNA-KRIL

EJA220 :: KSNA-KRIL

FLIGHT INFORMATION

Flight Status: Arrived
Operator:
Netjets Aviation
More flights by this operator :: More flights under this callsign
Pilot: Ethan S. (29221)
Aircraft: CANADAIR CL-600 CHALLENGER
(CL60)
More flights by this aircraft type
Origin: KSNA John Wayne-Orange Co
United States
Destination: KRIL Rifle Garfield County Airport
United States
More flights between these airports :: More routes between these airports
Route: FINZZ3 BEALE BAWER JNC RIL
File this flight plan on PilotEdge
Remarks:
Altitude:
(Current/Filed)
39,000ft
Speed:
(Current/Filed)
465kts
Departed: 16-Nov-23 01:27 PM
Arrived: 16-Nov-23 02:46 PM
Distance/Time
Traveled:
601nm/1:19
Distance/Time
To Go:
Arrived

Flight Plot

Page will automatically refresh every two minutes.

Flight plan parsing failed; only flown route is shown


Map Options




Map Legend


Flown Route
Filed Route
Departure Airport
Arrival Airport
Navaid (VOR, NDB)
Fix

Horizontal Profiles

Position Reports

Time Latitude Longitude Heading Altitude Ground
Speed
16-Nov-23 13:10 33.671851 -117.867101 206 58ft 0kts
16-Nov-23 13:11 33.671851 -117.867101 206 58ft 0kts
16-Nov-23 13:12 33.671851 -117.867101 206 58ft 0kts
16-Nov-23 13:13 33.671851 -117.867101 206 58ft 0kts
16-Nov-23 13:14 33.671851 -117.867101 206 58ft 0kts
16-Nov-23 13:15 33.671851 -117.867101 206 58ft 0kts
16-Nov-23 13:16 33.671851 -117.867101 206 58ft 0kts
16-Nov-23 13:17 33.671851 -117.867101 206 58ft 0kts
16-Nov-23 13:18 33.671851 -117.867101 206 58ft 0kts
16-Nov-23 13:19 33.671851 -117.867101 206 58ft 0kts
16-Nov-23 13:20 33.671851 -117.867101 206 58ft 0kts
16-Nov-23 13:21 33.671851 -117.867101 206 58ft 0kts
16-Nov-23 13:22 33.672000 -117.867962 309 58ft 7kts
16-Nov-23 13:23 33.676277 -117.865098 27 52ft 22kts
16-Nov-23 13:24 33.680296 -117.862689 352 49ft 6kts
16-Nov-23 13:25 33.681137 -117.865380 210 48ft 13kts
16-Nov-23 13:26 33.652238 -117.884235 207 1456ft 203kts
16-Nov-23 13:28 33.595230 -117.895980 185 4914ft 230kts
16-Nov-23 13:29 33.535364 -117.938826 223 7328ft 270kts
16-Nov-23 13:30 33.502153 -118.012796 285 9763ft 279kts
16-Nov-23 13:31 33.551852 -118.092076 306 13777ft 326kts
16-Nov-23 13:32 33.645953 -118.105789 26 17065ft 402kts
16-Nov-23 13:33 33.746469 -118.040774 24 17404ft 406kts
16-Nov-23 13:34 33.847043 -117.980305 24 17388ft 405kts
16-Nov-23 13:35 33.946620 -117.911091 37 18901ft 427kts
16-Nov-23 13:36 34.042189 -117.821534 35 21947ft 444kts
16-Nov-23 13:37 34.134089 -117.715911 52 24256ft 474kts
16-Nov-23 13:38 34.219006 -117.586938 51 26163ft 504kts
16-Nov-23 13:39 34.309361 -117.451495 49 27835ft 531kts
16-Nov-23 13:40 34.404657 -117.308877 50 29269ft 557kts
16-Nov-23 13:41 34.503264 -117.160546 50 30643ft 574kts
16-Nov-23 13:42 34.605259 -117.010031 48 32184ft 582kts
16-Nov-23 13:43 34.708586 -116.859313 48 33924ft 579kts
16-Nov-23 13:44 34.810924 -116.709242 48 35566ft 575kts
16-Nov-23 13:45 34.915524 -116.563126 44 36980ft 571kts
16-Nov-23 13:46 35.022276 -116.420347 43 38115ft 570kts
16-Nov-23 13:47 35.128787 -116.277229 44 38992ft 570kts
16-Nov-23 13:48 35.235082 -116.133851 44 39486ft 573kts
16-Nov-23 13:49 35.342724 -115.988041 44 39525ft 585kts
16-Nov-23 13:50 35.452329 -115.838798 44 39538ft 594kts
16-Nov-23 13:51 35.563170 -115.687183 45 39550ft 603kts
16-Nov-23 13:52 35.675095 -115.533458 44 39560ft 604kts
16-Nov-23 13:53 35.786712 -115.379454 44 39579ft 602kts
16-Nov-23 13:54 35.895766 -115.228240 44 39579ft 600kts
16-Nov-23 13:54 35.988140 -115.099630 45 39587ft 599kts
16-Nov-23 13:56 36.115523 -114.921267 44 39560ft 597kts
16-Nov-23 13:57 36.221358 -114.762591 51 39576ft 599kts
16-Nov-23 13:58 36.319451 -114.595777 50 39569ft 601kts
16-Nov-23 13:59 36.417667 -114.428341 50 39570ft 600kts
16-Nov-23 13:59 36.495448 -114.295212 51 39558ft 598kts
16-Nov-23 14:01 36.604113 -114.107872 50 39498ft 599kts
16-Nov-23 14:02 36.701359 -113.939831 51 39568ft 598kts
16-Nov-23 14:02 36.781943 -113.799655 50 39575ft 599kts
16-Nov-23 14:03 36.878800 -113.630483 50 39548ft 597kts
16-Nov-23 14:05 36.990879 -113.433928 51 39555ft 595kts
16-Nov-23 14:06 37.085822 -113.266359 51 39552ft 595kts
16-Nov-23 14:06 37.165426 -113.125162 51 39550ft 594kts
16-Nov-23 14:07 37.260311 -112.956299 51 39552ft 594kts
16-Nov-23 14:08 37.355004 -112.786897 50 39574ft 592kts
16-Nov-23 14:09 37.449354 -112.617422 51 39587ft 591kts
16-Nov-23 14:11 37.558714 -112.419370 50 39602ft 591kts
16-Nov-23 14:11 37.634504 -112.276398 58 39643ft 592kts
16-Nov-23 14:12 37.713848 -112.094457 58 39651ft 593kts
16-Nov-23 14:13 37.792543 -111.911822 59 39605ft 593kts
16-Nov-23 14:14 37.870527 -111.729039 58 39611ft 593kts
16-Nov-23 14:15 37.948397 -111.545570 58 39602ft 591kts
16-Nov-23 14:16 38.025489 -111.362587 58 39662ft 589kts
16-Nov-23 14:17 38.100979 -111.182208 59 39585ft 589kts
16-Nov-23 14:18 38.177187 -110.998877 59 39558ft 588kts
16-Nov-23 14:19 38.253112 -110.815239 59 39562ft 587kts
16-Nov-23 14:20 38.328665 -110.631364 59 39571ft 587kts
16-Nov-23 14:21 38.403734 -110.447749 59 39536ft 585kts
16-Nov-23 14:22 38.477789 -110.265132 59 39464ft 584kts
16-Nov-23 14:23 38.552166 -110.080970 59 39489ft 584kts
16-Nov-23 14:24 38.626058 -109.896482 58 39443ft 584kts
16-Nov-23 14:25 38.697078 -109.718779 60 39442ft 581kts
16-Nov-23 14:26 38.770252 -109.533829 58 39318ft 582kts
16-Nov-23 14:27 38.841885 -109.352244 59 37344ft 562kts
16-Nov-23 14:28 38.910057 -109.178302 59 35548ft 541kts
16-Nov-23 14:29 38.976792 -109.006979 59 33121ft 535kts
16-Nov-23 14:30 39.041949 -108.838769 59 30728ft 522kts
16-Nov-23 14:31 39.108717 -108.682807 56 28619ft 498kts
16-Nov-23 14:32 39.175465 -108.531406 56 26470ft 477kts
16-Nov-23 14:33 39.239483 -108.385565 56 24372ft 457kts
16-Nov-23 14:34 39.299841 -108.247589 56 22223ft 438kts
16-Nov-23 14:35 39.358065 -108.113970 56 19998ft 419kts
16-Nov-23 14:36 39.412381 -107.988779 57 17579ft 379kts
16-Nov-23 14:37 39.461609 -107.875010 58 15233ft 350kts
16-Nov-23 14:38 39.522455 -107.793566 8 13291ft 297kts
16-Nov-23 14:39 39.600375 -107.769613 13 11540ft 282kts
16-Nov-23 14:40 39.619904 -107.686199 112 9811ft 264kts
16-Nov-23 14:41 39.587539 -107.621713 158 8602ft 201kts
16-Nov-23 14:42 39.538578 -107.616617 227 6833ft 155kts
16-Nov-23 14:43 39.527670 -107.668285 270 6421ft 155kts
16-Nov-23 14:44 39.526733 -107.721784 269 5528ft 137kts
16-Nov-23 14:45 39.525408 -107.732640 88 5483ft 6kts
16-Nov-23 14:46 39.525490 -107.729040 87 5501ft 15kts
16-Nov-23 14:47 39.525411 -107.724980 152 5516ft 8kts
16-Nov-23 14:48 39.524166 -107.724218 92 5518ft 6kts
16-Nov-23 14:49 39.523722 -107.723708 183 5520ft 0kts
16-Nov-23 14:50 39.523722 -107.723708 183 5520ft 0kts
16-Nov-23 14:51 39.523722 -107.723708 183 5520ft 0kts
16-Nov-23 14:52 39.523722 -107.723708 183 5520ft 0kts
16-Nov-23 14:53 39.523722 -107.723708 183 5520ft 0kts
16-Nov-23 14:54 39.523722 -107.723708 183 5520ft 0kts
16-Nov-23 14:55 39.523722 -107.723708 183 5520ft 0kts
16-Nov-23 14:56 39.523722 -107.723708 183 5520ft 0kts
16-Nov-23 14:57 39.523722 -107.723708 183 5520ft 0kts

Navigation Log

Ident Type
Flight plan parsing failed, navigation log unavailable